Time;durP1;ratioP1;P1;durP2;ratioP2;P2;SDS_P1;SDS_P2;PMS_P1;PMS_P2;Temp;Humidity;BMP_temperature;BMP_pressure;BME280_temperature;BME280_humidity;BME280_pressure;Samples;Min_cycle;Max_cycle;Signal;HPM_P1;HPM_P2
2021/03/08 00:01:30;;;;;;;14.33;10.23;;;;;;;1.53;65.32;98840.28;1683786;85;21626;-68
2021/03/08 00:03:58;;;;;;;13.60;8.85;;;;;;;1.49;65.32;98840.76;1683369;85;21630;-68
2021/03/08 00:06:27;;;;;;;14.75;9.78;;;;;;;1.54;65.45;98835.22;1665115;85;21590;-67
2021/03/08 00:08:54;;;;;;;17.15;10.85;;;;;;;1.54;65.31;98833.36;1691214;84;21134;-68
2021/03/08 00:11:22;;;;;;;14.23;10.45;;;;;;;1.53;65.23;98825.01;1661684;85;21688;-68
2021/03/08 00:13:49;;;;;;;17.85;10.43;;;;;;;1.56;65.29;98829.11;1651338;85;21217;-67
2021/03/08 00:16:17;;;;;;;15.90;11.03;;;;;;;1.53;65.28;98823.67;1667053;85;21600;-68
2021/03/08 00:18:44;;;;;;;16.57;10.85;;;;;;;1.53;65.30;98816.96;1656048;85;21196;-68
2021/03/08 00:21:12;;;;;;;15.83;10.63;;;;;;;1.49;65.54;98817.14;1673517;85;21166;-68
2021/03/08 00:23:40;;;;;;;14.90;10.08;;;;;;;1.46;65.51;98818.95;1676274;85;21307;-68
2021/03/08 00:26:08;;;;;;;14.80;10.63;;;;;;;1.46;65.38;98813.06;1642252;85;21206;-68
2021/03/08 00:28:36;;;;;;;17.17;10.58;;;;;;;1.52;65.41;98807.83;1673505;83;21201;-67
2021/03/08 00:31:03;;;;;;;17.85;10.10;;;;;;;1.47;65.56;98809.87;1668813;85;21192;-68
2021/03/08 00:33:31;;;;;;;13.95;10.20;;;;;;;1.48;65.48;98807.48;1667869;86;21295;-67
2021/03/08 00:35:58;;;;;;;17.35;10.15;;;;;;;1.48;65.58;98800.78;1647438;86;21597;-68
2021/03/08 00:38:26;;;;;;;15.83;10.03;;;;;;;1.48;65.44;98792.73;1629136;86;21275;-70
2021/03/08 00:40:53;;;;;;;15.23;10.08;;;;;;;1.47;65.67;98791.91;1673025;86;21172;-68
2021/03/08 00:43:21;;;;;;;15.83;10.48;;;;;;;1.45;65.66;98784.61;1669193;86;21185;-69
2021/03/08 00:45:49;;;;;;;14.68;9.78;;;;;;;1.49;65.75;98785.77;1664446;86;21198;-68
2021/03/08 00:48:17;;;;;;;15.95;10.43;;;;;;;1.44;65.85;98780.32;1670424;86;21645;-69
2021/03/08 00:50:45;;;;;;;16.15;10.58;;;;;;;1.50;65.76;98782.57;1670972;86;21189;-69
2021/03/08 00:53:14;;;;;;;16.50;10.50;;;;;;;1.45;66.04;98779.80;1628817;86;21149;-68
2021/03/08 00:55:43;;;;;;;16.48;10.75;;;;;;;1.44;66.19;98778.98;1668557;85;21185;-68
2021/03/08 00:58:11;;;;;;;14.68;10.58;;;;;;;1.44;66.15;98769.59;1656356;86;21184;-68
2021/03/08 01:00:38;;;;;;;17.37;10.65;;;;;;;1.44;66.19;98775.48;1674995;85;21153;-68
2021/03/08 01:03:07;;;;;;;16.80;10.55;;;;;;;1.40;66.48;98772.45;1656261;86;21173;-70
2021/03/08 01:05:37;;;;;;;15.05;10.00;;;;;;;1.40;66.11;98759.56;1658344;85;21632;-68
2021/03/08 01:08:07;;;;;;;16.80;11.00;;;;;;;1.40;66.25;98768.95;1655519;86;21180;-68
2021/03/08 01:10:36;;;;;;;15.23;10.60;;;;;;;1.38;66.54;98759.00;1666258;85;21284;-67
2021/03/08 01:13:05;;;;;;;17.27;11.48;;;;;;;1.35;66.70;98755.42;1683458;85;21188;-68
2021/03/08 01:15:33;;;;;;;17.20;11.65;;;;;;;1.33;66.65;98746.29;1668254;85;21153;-69
2021/03/08 01:18:00;;;;;;;16.97;11.33;;;;;;;1.33;66.58;98743.61;1656405;86;21237;-68
2021/03/08 01:20:28;;;;;;;16.57;11.80;;;;;;;1.36;66.74;98737.77;1648865;87;21197;-68
2021/03/08 01:22:55;;;;;;;20.35;11.28;;;;;;;1.38;66.69;98743.70;1632803;86;21597;-68
2021/03/08 01:25:29;;;;;;;14.10;10.48;;;;;;;1.38;66.66;98734.86;1675175;85;21169;-69
2021/03/08 01:27:59;;;;;;;17.73;10.43;;;;;;;1.36;66.78;98733.75;1647408;86;21208;-69
2021/03/08 01:30:29;;;;;;;16.23;10.50;;;;;;;1.38;66.83;98738.89;1675223;85;21153;-67
2021/03/08 01:32:59;;;;;;;15.95;11.28;;;;;;;1.31;66.86;98743.02;1675239;85;21647;-68
2021/03/08 01:35:26;;;;;;;15.88;10.78;;;;;;;1.28;66.87;98735.45;1668722;86;21189;-66
2021/03/08 01:37:54;;;;;;;16.48;11.75;;;;;;;1.28;67.00;98739.47;1670814;86;21185;-67
2021/03/08 01:40:24;;;;;;;14.50;11.20;;;;;;;1.27;66.93;98740.54;1645808;86;21189;-67
2021/03/08 01:42:52;;;;;;;16.25;11.85;;;;;;;1.29;66.97;98747.81;1659408;86;21142;-67
2021/03/08 01:45:21;;;;;;;15.53;11.40;;;;;;;1.33;66.72;98740.92;1670211;86;21172;-68
2021/03/08 01:47:48;;;;;;;15.90;10.90;;;;;;;1.31;66.87;98743.02;1670406;86;21649;-67
2021/03/08 01:50:38;;;;;;;16.62;10.85;;;;;;;1.34;66.81;98733.19;1670735;86;21247;-67
2021/03/08 01:53:09;;;;;;;15.72;11.00;;;;;;;1.31;66.95;98740.88;1668601;86;21260;-67
2021/03/08 01:55:37;;;;;;;16.77;10.38;;;;;;;1.32;66.93;98741.97;1667181;85;21162;-67
2021/03/08 01:58:04;;;;;;;17.57;11.90;;;;;;;1.31;67.19;98740.33;1642161;87;21210;-68
2021/03/08 02:00:34;;;;;;;17.45;11.53;;;;;;;1.27;67.20;98737.86;1670708;84;21635;-66
2021/03/08 02:03:02;;;;;;;17.15;10.95;;;;;;;1.29;67.12;98743.78;1705605;84;21154;-68
2021/03/08 02:05:36;;;;;;;16.93;11.68;;;;;;;1.29;66.98;98736.27;1683288;83;21621;-67
2021/03/08 02:08:06;;;;;;;16.02;11.25;;;;;;;1.28;67.01;98739.47;1679527;85;21178;-67
2021/03/08 02:10:39;;;;;;;15.23;10.53;;;;;;;1.29;66.93;98741.11;1686316;84;21320;-68
2021/03/08 02:13:50;;;;;;;16.17;11.53;;;;;;;1.33;66.84;98730.20;1709248;84;21237;-67
2021/03/08 02:16:35;;;;;;;16.37;11.08;;;;;;;1.35;66.80;98731.29;1707304;84;21146;-68
2021/03/08 02:19:20;;;;;;;15.55;10.90;;;;;;;1.31;66.99;98737.65;1707070;84;21554;-68
2021/03/08 02:22:10;;;;;;;16.57;10.70;;;;;;;1.24;67.08;98730.26;1709552;84;21125;-68
2021/03/08 02:25:07;;;;;;;16.97;10.95;;;;;;;1.27;67.22;98736.52;1705488;84;21186;-68
2021/03/08 02:27:52;;;;;;;17.57;11.43;;;;;;;1.26;67.08;98730.86;1707927;84;21621;-68
2021/03/08 02:30:44;;;;;;;18.45;11.30;;;;;;;1.28;67.13;98724.72;1720247;83;21149;-69
2021/03/08 02:33:15;;;;;;;18.12;12.50;;;;;;;1.30;67.29;98742.75;1697087;83;21177;-67
2021/03/08 02:35:44;;;;;;;14.73;10.85;;;;;;;1.27;67.20;98726.31;1712710;83;21149;-68
2021/03/08 02:38:17;;;;;;;17.82;12.15;;;;;;;1.29;67.33;98722.34;1722224;83;21125;-66
2021/03/08 02:40:50;;;;;;;17.50;11.95;;;;;;;1.29;67.51;98722.34;1716368;83;21141;-68
2021/03/08 02:43:23;;;;;;;14.40;10.03;;;;;;;1.32;67.54;98730.42;1722747;83;21165;-68
2021/03/08 02:45:51;;;;;;;16.75;10.58;;;;;;;1.27;67.64;98715.59;1694052;83;21161;-67
2021/03/08 02:48:21;;;;;;;16.60;10.68;;;;;;;1.30;67.68;98718.61;1647033;85;21196;-68
2021/03/08 02:50:51;;;;;;;16.55;11.43;;;;;;;1.30;67.77;98721.81;1717209;83;21165;-69
2021/03/08 02:53:19;;;;;;;15.32;10.82;;;;;;;1.27;67.69;98724.45;1692893;84;21185;-68
2021/03/08 02:55:56;;;;;;;17.05;11.90;;;;;;;1.27;67.94;98731.16;1684378;84;21129;-68
2021/03/08 02:58:23;;;;;;;16.67;11.53;;;;;;;1.24;68.01;98726.23;1688460;83;21268;-68
2021/03/08 03:00:53;;;;;;;16.77;10.82;;;;;;;1.19;68.64;98727.48;1672706;83;21671;-68
2021/03/08 03:03:21;;;;;;;15.70;11.55;;;;;;;1.17;69.11;98726.89;1722825;83;21612;-69
2021/03/08 03:05:49;;;;;;;15.28;11.00;;;;;;;1.16;69.84;98723.95;1703734;83;21161;-68
2021/03/08 03:08:16;;;;;;;19.17;10.80;;;;;;;1.16;70.19;98731.98;1667421;83;21339;-68
2021/03/08 03:10:44;;;;;;;15.13;11.18;;;;;;;1.13;70.65;98728.96;1707239;83;21672;-69
2021/03/08 03:13:11;;;;;;;18.02;12.33;;;;;;;1.08;71.29;98733.68;1719171;83;21189;-68
2021/03/08 03:15:39;;;;;;;17.23;11.83;;;;;;;1.01;72.31;98726.28;1722591;83;21145;-69
2021/03/08 03:18:07;;;;;;;18.05;12.00;;;;;;;0.94;73.51;98733.11;1720991;83;21390;-69
2021/03/08 03:20:36;;;;;;;17.15;12.10;;;;;;;0.85;74.06;98735.05;1722791;83;21153;-68
2021/03/08 03:23:04;;;;;;;18.98;12.50;;;;;;;0.84;74.24;98730.20;1708173;83;21311;-69
2021/03/08 03:25:31;;;;;;;15.05;11.93;;;;;;;0.80;74.29;98730.90;1694735;83;21161;-69
2021/03/08 03:27:59;;;;;;;15.80;11.63;;;;;;;0.73;74.02;98731.02;1706635;83;21157;-67
2021/03/08 03:30:28;;;;;;;17.10;10.95;;;;;;;0.77;73.87;98728.69;1692713;83;21584;-68
2021/03/08 03:32:56;;;;;;;17.42;11.57;;;;;;;0.82;73.46;98727.45;1700037;83;21161;-68
2021/03/08 03:35:26;;;;;;;17.37;12.25;;;;;;;0.80;73.20;98728.22;1710013;83;21177;-68
2021/03/08 03:37:56;;;;;;;15.72;11.50;;;;;;;0.81;72.97;98724.50;1720807;83;21168;-68
2021/03/08 03:40:23;;;;;;;18.70;12.60;;;;;;;0.79;73.01;98725.23;1720580;83;21188;-68
2021/03/08 03:42:51;;;;;;;18.40;11.57;;;;;;;0.83;72.73;98726.41;1722903;83;21181;-67
2021/03/08 03:45:20;;;;;;;17.85;11.30;;;;;;;0.80;72.75;98724.20;1715812;83;21197;-67
2021/03/08 03:47:48;;;;;;;16.12;11.60;;;;;;;0.77;72.52;98731.37;1717260;83;21162;-68
2021/03/08 03:50:21;;;;;;;16.62;11.18;;;;;;;0.83;72.46;98733.11;1712405;83;21126;-68
2021/03/08 03:52:48;;;;;;;16.57;11.53;;;;;;;0.83;72.31;98726.41;1692469;85;21319;-68
2021/03/08 03:55:19;;;;;;;15.80;10.68;;;;;;;0.83;72.03;98723.20;1692422;85;21157;-68
2021/03/08 03:57:57;;;;;;;17.95;11.95;;;;;;;0.86;71.95;98728.62;1696535;83;21141;-67
2021/03/08 04:00:25;;;;;;;14.75;11.12;;;;;;;0.88;71.94;98727.87;1698474;83;21200;-67
2021/03/08 04:03:08;;;;;;;18.77;11.63;;;;;;;0.88;72.08;98723.86;1713936;83;21177;-67
2021/03/08 04:05:39;;;;;;;17.80;11.65;;;;;;;0.88;72.01;98728.70;1692973;83;21197;-68
2021/03/08 04:08:10;;;;;;;16.50;11.33;;;;;;;0.84;72.13;98727.53;1715121;82;21181;-68
2021/03/08 04:10:38;;;;;;;16.55;11.00;;;;;;;0.87;72.39;98732.94;1700021;83;21569;-68
2021/03/08 04:13:12;;;;;;;18.07;11.90;;;;;;;0.89;72.39;98728.97;1694638;83;21683;-69
2021/03/08 04:15:39;;;;;;;16.95;11.57;;;;;;;0.87;72.74;98725.72;1712749;83;21271;-68
2021/03/08 04:18:06;;;;;;;17.30;11.43;;;;;;;0.86;72.89;98724.59;1720997;82;21212;-68
2021/03/08 04:20:34;;;;;;;16.00;11.00;;;;;;;0.87;72.99;98718.20;1668684;85;21369;-69
2021/03/08 04:23:05;;;;;;;17.45;11.60;;;;;;;0.84;73.23;98722.17;1694321;83;21620;-68
2021/03/08 04:25:33;;;;;;;15.00;10.95;;;;;;;0.85;73.68;98719.76;1694080;85;21613;-68
2021/03/08 04:28:02;;;;;;;16.40;11.18;;;;;;;0.78;74.48;98721.74;1718995;83;21616;-68
2021/03/08 04:30:30;;;;;;;18.12;11.88;;;;;;;0.75;74.91;98726.23;1722796;83;21185;-67
2021/03/08 04:32:57;;;;;;;16.45;11.35;;;;;;;0.76;75.23;98713.66;1705576;83;21165;-67
2021/03/08 04:35:27;;;;;;;16.70;11.93;;;;;;;0.78;75.16;98720.95;1704259;83;21529;-68
2021/03/08 04:37:56;;;;;;;20.60;12.35;;;;;;;0.69;75.58;98728.51;1715205;83;21614;-68
2021/03/08 04:40:24;;;;;;;16.02;11.70;;;;;;;0.70;75.63;98736.02;1694364;83;21185;-67
2021/03/08 04:42:52;;;;;;;17.92;12.05;;;;;;;0.76;75.48;98731.07;1723185;83;21141;-67
2021/03/08 04:45:20;;;;;;;19.40;12.40;;;;;;;0.71;75.54;98724.27;1696606;83;21201;-67
2021/03/08 04:47:49;;;;;;;16.57;11.68;;;;;;;0.70;75.39;98728.81;1703402;83;21585;-67
2021/03/08 04:50:17;;;;;;;17.27;12.10;;;;;;;0.76;75.12;98723.03;1713071;83;21169;-68
2021/03/08 04:52:49;;;;;;;17.27;11.97;;;;;;;0.72;75.09;98725.88;1722745;83;21668;-68
2021/03/08 04:55:17;;;;;;;18.15;12.65;;;;;;;0.74;74.97;98736.67;1699374;83;21153;-67
2021/03/08 04:57:45;;;;;;;18.37;12.40;;;;;;;0.73;74.97;98733.70;1694913;83;21137;-68
2021/03/08 05:00:13;;;;;;;18.17;12.33;;;;;;;0.74;74.82;98730.50;1695253;83;21180;-69
2021/03/08 05:02:43;;;;;;;16.82;10.95;;;;;;;0.74;74.62;98731.32;1708838;83;21161;-67
2021/03/08 05:05:13;;;;;;;16.15;11.57;;;;;;;0.84;74.42;98737.42;1692258;85;21197;-67
2021/03/08 05:07:42;;;;;;;17.23;12.15;;;;;;;0.79;74.53;98743.99;1697230;83;21649;-68
2021/03/08 05:10:16;;;;;;;21.68;13.05;;;;;;;0.80;74.47;98739.75;1722544;83;21900;-68
2021/03/08 05:12:44;;;;;;;19.52;11.65;;;;;;;0.80;74.46;98744.30;1722995;83;21165;-68
2021/03/08 05:15:13;;;;;;;19.65;13.05;;;;;;;0.76;74.57;98741.27;1723105;83;22024;-69
2021/03/08 05:17:41;;;;;;;16.60;12.33;;;;;;;0.75;74.60;98740.97;1722329;83;21311;-68
2021/03/08 05:20:11;;;;;;;17.02;12.00;;;;;;;0.76;74.79;98742.61;1696375;82;21169;-68
2021/03/08 05:22:40;;;;;;;16.07;11.83;;;;;;;0.78;74.96;98753.89;1694933;83;21150;-69
2021/03/08 05:25:10;;;;;;;16.95;11.38;;;;;;;0.80;74.98;98755.83;1698697;83;21146;-68
2021/03/08 05:27:39;;;;;;;16.65;12.65;;;;;;;0.80;75.12;98746.97;1690825;83;21599;-68
2021/03/08 05:30:09;;;;;;;17.82;12.45;;;;;;;0.85;75.01;98758.61;1713109;83;21699;-69
2021/03/08 05:32:51;;;;;;;17.70;11.53;;;;;;;0.79;75.25;98757.39;1703767;84;21604;-67
2021/03/08 05:35:20;;;;;;;11.53;7.30;;;;;;;0.78;75.45;98761.92;1686177;84;21542;-68
2021/03/08 05:37:48;;;;;;;8.30;4.80;;;;;;;0.67;73.18;98763.28;1635346;87;21624;-67
2021/03/08 05:40:40;;;;;;;11.35;4.33;;;;;;;0.61;70.95;98766.86;1699474;84;21185;-68
2021/03/08 05:43:11;;;;;;;6.90;3.20;;;;;;;0.59;70.42;98777.82;1626247;88;21213;-68
2021/03/08 05:46:00;;;;;;;4.97;2.50;;;;;;;0.49;68.76;98786.43;1644115;86;21202;-67
2021/03/08 05:49:17;;;;;;;8.10;2.90;;;;;;;0.50;68.46;98792.05;1656082;86;21202;-69
2021/03/08 05:52:14;;;;;;;4.47;2.33;;;;;;;0.42;68.62;98797.77;1659789;86;21214;-69
2021/03/08 05:55:25;;;;;;;4.37;1.17;;;;;;;0.37;68.64;98806.99;1709545;84;21194;-70
2021/03/08 05:58:19;;;;;;;3.27;1.40;;;;;;;0.20;67.35;98803.85;1709599;82;21512;-69
2021/03/08 06:01:31;;;;;;;4.22;1.30;;;;;;;0.22;67.39;98809.78;1709278;84;21129;-69
2021/03/08 06:04:45;;;;;;;4.20;1.37;;;;;;;0.13;66.45;98807.14;1704337;84;21658;-68
2021/03/08 06:08:06;;;;;;;4.15;1.40;;;;;;;0.16;67.09;98814.72;1666414;86;21175;-67
2021/03/08 06:10:34;;;;;;;1.95;0.60;;;;;;;0.09;66.71;98824.17;1683836;84;21549;-67
2021/03/08 06:13:07;;;;;;;4.70;1.20;;;;;;;0.02;62.93;98819.44;1709410;82;21181;-68
2021/03/08 06:15:36;;;;;;;2.47;1.00;;;;;;;0.10;64.21;98820.98;1709616;84;21281;-70
2021/03/08 06:18:07;;;;;;;2.42;0.78;;;;;;;-0.08;63.45;98808.45;1709291;84;21280;-70
2021/03/08 06:20:36;;;;;;;4.20;1.07;;;;;;;0.06;62.06;98834.52;1709299;84;21190;-69
2021/03/08 06:23:03;;;;;;;4.65;1.20;;;;;;;0.05;62.63;98839.05;1709536;84;21138;-68
2021/03/08 06:25:31;;;;;;;3.55;1.57;;;;;;;0.06;63.54;98850.05;1709786;84;21324;-69
2021/03/08 06:27:58;;;;;;;5.53;2.33;;;;;;;0.02;63.52;98837.34;1688438;84;21169;-69
2021/03/08 06:30:26;;;;;;;4.50;1.77;;;;;;;0.08;64.21;98840.44;1703105;83;21626;-69
2021/03/08 06:32:54;;;;;;;2.45;0.90;;;;;;;0.08;63.52;98849.30;1695637;83;21173;-70
2021/03/08 06:35:22;;;;;;;3.90;0.62;;;;;;;0.11;62.58;98856.87;1634597;87;21750;-67
2021/03/08 06:37:49;;;;;;;2.85;0.78;;;;;;;0.09;60.93;98854.12;1671134;86;21191;-68
2021/03/08 06:40:18;;;;;;;3.25;1.00;;;;;;;0.13;61.91;98861.49;1671061;85;21603;-68
2021/03/08 06:42:46;;;;;;;2.80;1.10;;;;;;;0.12;61.64;98861.19;1666669;86;21154;-69
2021/03/08 06:45:14;;;;;;;3.02;0.85;;;;;;;-0.06;62.44;98821.08;1702016;84;21154;-68
2021/03/08 06:47:42;;;;;;;2.50;0.80;;;;;;;0.24;62.67;98866.59;1709544;84;21219;-69
2021/03/08 06:50:12;;;;;;;3.20;0.85;;;;;;;0.30;62.19;98863.01;1687677;84;21288;-69
2021/03/08 06:52:41;;;;;;;5.22;1.07;;;;;;;0.37;62.23;98867.75;1703777;83;21169;-69
2021/03/08 06:55:10;;;;;;;2.55;1.15;;;;;;;0.31;62.07;98867.33;1683469;84;21577;-70
2021/03/08 06:57:42;;;;;;;3.35;1.00;;;;;;;0.27;61.93;98868.82;1636559;88;21171;-69
2021/03/08 07:00:13;;;;;;;2.95;0.80;;;;;;;0.29;62.10;98870.22;1680476;84;21150;-68
2021/03/08 07:02:46;;;;;;;3.77;1.30;;;;;;;0.27;62.76;98874.99;1709503;84;21189;-69
2021/03/08 07:05:27;;;;;;;4.35;1.25;;;;;;;0.29;62.37;98878.25;1636427;88;21204;-68
2021/03/08 07:07:59;;;;;;;2.52;1.12;;;;;;;0.29;62.53;98880.92;1671143;86;21587;-68
2021/03/08 07:10:40;;;;;;;3.75;1.22;;;;;;;0.31;62.63;98870.83;1636015;87;21210;-69
2021/03/08 07:13:10;;;;;;;7.53;2.50;;;;;;;0.36;62.70;98875.48;1690080;84;21193;-70
2021/03/08 07:15:58;;;;;;;4.47;1.40;;;;;;;0.45;62.89;98866.09;1700890;84;21608;-70
2021/03/08 07:18:27;;;;;;;4.25;1.27;;;;;;;0.52;62.48;98874.03;1697758;84;21698;-71
2021/03/08 07:21:21;;;;;;;4.70;1.57;;;;;;;0.60;62.07;98869.19;1635958;88;21158;-71
2021/03/08 07:23:50;;;;;;;4.37;1.30;;;;;;;0.60;62.72;98871.86;1679734;85;21177;-71
2021/03/08 07:26:22;;;;;;;4.10;1.00;;;;;;;0.62;61.50;98874.30;1608656;88;21189;-70
2021/03/08 07:29:12;;;;;;;3.35;1.00;;;;;;;0.64;61.82;98870.33;1655393;85;21242;-71
2021/03/08 07:31:42;;;;;;;3.10;0.98;;;;;;;0.65;60.74;98869.81;1670922;85;21178;-70
2021/03/08 07:34:12;;;;;;;2.22;0.80;;;;;;;0.60;59.84;98863.01;1671034;86;21711;-70
2021/03/08 07:36:43;;;;;;;3.65;0.98;;;;;;;0.68;59.93;98872.03;1671008;86;21201;-70
2021/03/08 07:39:17;;;;;;;3.37;0.93;;;;;;;0.69;59.01;98879.03;1671056;84;21178;-70
2021/03/08 07:42:00;;;;;;;5.10;1.45;;;;;;;0.75;60.08;98877.59;1650468;86;21210;-70
2021/03/08 07:44:29;;;;;;;3.35;1.15;;;;;;;0.80;59.68;98880.93;1670980;84;21197;-70
2021/03/08 07:46:59;;;;;;;3.15;1.20;;;;;;;0.91;58.64;98877.46;1664239;86;21201;-70
2021/03/08 07:49:35;;;;;;;3.98;1.37;;;;;;;0.93;59.16;98885.55;1671001;84;21232;-69
2021/03/08 07:52:12;;;;;;;3.10;1.17;;;;;;;0.97;57.38;98889.93;1671168;86;21600;-70
2021/03/08 07:55:02;;;;;;;1.52;0.60;;;;;;;1.09;57.69;98893.45;1656267;86;21189;-70
2021/03/08 07:57:30;;;;;;;3.35;0.90;;;;;;;1.22;54.66;98891.89;1635298;88;21174;-71
2021/03/08 07:59:59;;;;;;;2.55;0.78;;;;;;;1.18;52.26;98889.90;1670749;84;21157;-70
2021/03/08 08:02:27;;;;;;;3.83;1.30;;;;;;;1.29;52.63;98884.55;1687979;84;21131;-70
2021/03/08 08:04:57;;;;;;;3.72;1.10;;;;;;;1.34;50.86;98879.33;1694322;84;21627;-69
2021/03/08 08:07:26;;;;;;;3.72;1.20;;;;;;;1.50;50.13;98869.22;1694609;85;21212;-71
2021/03/08 08:09:53;;;;;;;2.40;0.70;;;;;;;1.67;48.71;98886.75;1694617;84;21191;-68
2021/03/08 08:15:05;;;;;;;2.72;0.70;;;;;;;2.06;46.11;98878.98;1783867;79;23495;-66
2021/03/08 08:17:35;;;;;;;2.02;0.40;;;;;;;2.23;46.44;98875.30;1761630;80;21129;-66
2021/03/08 08:20:06;;;;;;;2.95;0.70;;;;;;;2.34;45.99;98874.45;1735435;81;21632;-66
2021/03/08 08:22:34;;;;;;;1.92;0.85;;;;;;;2.39;46.44;98879.94;1759335;81;21598;-67
2021/03/08 08:25:04;;;;;;;3.08;0.78;;;;;;;2.42;46.39;98886.69;1745976;82;21667;-66
2021/03/08 08:27:32;;;;;;;2.33;0.50;;;;;;;2.37;47.15;98874.52;1753401;81;21509;-66
2021/03/08 08:30:01;;;;;;;3.60;0.93;;;;;;;2.31;46.70;98868.22;1762302;80;21125;-65
2021/03/08 08:32:51;;;;;;;3.50;0.50;;;;;;;2.39;46.39;98880.45;1762204;80;21148;-66
2021/03/08 08:35:23;;;;;;;2.15;0.50;;;;;;;2.36;46.80;98880.41;1726536;83;21621;-66
2021/03/08 08:38:15;;;;;;;1.87;0.50;;;;;;;2.51;46.21;98878.55;1763642;80;21133;-66
2021/03/08 08:40:43;;;;;;;2.17;0.60;;;;;;;2.43;45.57;98869.00;1768784;80;21154;-65
2021/03/08 08:43:20;;;;;;;2.77;0.72;;;;;;;2.55;45.27;98868.14;1741364;81;21202;-66
2021/03/08 08:45:54;;;;;;;1.77;0.93;;;;;;;2.55;45.53;98876.98;1761087;81;21121;-68
2021/03/08 08:48:22;;;;;;;1.72;0.50;;;;;;;2.60;44.17;98866.34;1760722;80;21205;-66
2021/03/08 08:50:55;;;;;;;2.47;0.40;;;;;;;2.65;42.14;98862.42;1759923;81;21127;-67
2021/03/08 08:53:39;;;;;;;1.87;0.45;;;;;;;2.55;43.15;98874.86;1765435;80;21627;-66
2021/03/08 08:56:08;;;;;;;10.72;4.30;;;;;;;2.58;44.58;98884.59;1771442;81;21138;-65
2021/03/08 08:58:44;;;;;;;4.40;1.40;;;;;;;2.59;45.46;98887.55;1767077;81;21560;-66
2021/03/08 09:01:41;;;;;;;2.80;0.93;;;;;;;2.63;44.01;98890.56;1763082;81;21142;-65
2021/03/08 09:03:55;;;;;;;3.25;1.30;;;;;;;2.48;42.62;98895.94;1748282;80;21155;-66
2021/03/08 09:06:49;;;;;;;4.53;1.57;;;;;;;2.25;43.48;98896.04;1766447;81;21286;-66
2021/03/08 09:09:34;;;;;;;2.33;0.98;;;;;;;2.30;45.15;98886.72;1767694;79;21153;-66
2021/03/08 09:12:06;;;;;;;1.52;0.40;;;;;;;2.52;43.80;98885.53;1755075;80;21624;-64
2021/03/08 09:14:46;;;;;;;1.37;0.40;;;;;;;2.64;40.56;98892.20;1758399;81;21183;-64
2021/03/08 09:17:32;;;;;;;3.25;0.78;;;;;;;2.64;41.12;98890.34;1743828;81;21559;-67
2021/03/08 09:20:11;;;;;;;2.45;0.60;;;;;;;2.56;41.16;98901.98;1746853;82;21165;-70
2021/03/08 09:22:50;;;;;;;2.60;0.93;;;;;;;2.56;41.46;98904.15;1760785;81;21146;-67
2021/03/08 09:25:25;;;;;;;1.47;0.50;;;;;;;2.65;41.03;98907.28;1749605;81;21195;-66
2021/03/08 09:28:07;;;;;;;2.65;0.78;;;;;;;2.64;41.44;98904.30;1747062;81;21178;-65
2021/03/08 09:30:46;;;;;;;2.40;0.70;;;;;;;2.62;43.29;98900.52;1762573;81;21145;-66
2021/03/08 09:33:19;;;;;;;2.10;0.45;;;;;;;2.64;42.38;98892.20;1762850;81;21609;-67
2021/03/08 09:35:55;;;;;;;1.30;0.47;;;;;;;2.62;41.95;98903.73;1747058;82;21153;-65
2021/03/08 09:38:26;;;;;;;3.10;0.90;;;;;;;2.59;41.07;98899.63;1743996;81;21311;-67
2021/03/08 09:40:57;;;;;;;1.07;0.40;;;;;;;2.67;41.60;98899.78;1742527;81;21529;-65
2021/03/08 09:43:34;;;;;;;1.90;0.60;;;;;;;2.73;39.97;98896.94;1746231;81;21164;-66
2021/03/08 09:46:07;;;;;;;2.98;1.35;;;;;;;2.74;39.97;98906.64;1751766;81;21149;-65
2021/03/08 09:48:39;;;;;;;2.85;0.70;;;;;;;2.69;40.94;98910.60;1761591;81;21169;-67
2021/03/08 09:51:13;;;;;;;2.45;0.50;;;;;;;2.88;41.31;98908.50;1760812;81;21178;-67
2021/03/08 09:53:55;;;;;;;2.22;0.78;;;;;;;3.09;39.82;98894.34;1790186;79;23091;-67
2021/03/08 09:56:26;;;;;;;2.05;0.78;;;;;;;3.18;40.34;98899.62;1727414;83;21201;-67
2021/03/08 09:59:05;;;;;;;2.55;0.75;;;;;;;3.24;39.61;98897.30;1719184;83;21326;-67
2021/03/08 10:01:36;;;;;;;1.67;0.40;;;;;;;3.39;39.62;98905.61;1715180;83;21166;-67
2021/03/08 10:04:05;;;;;;;3.12;0.90;;;;;;;3.49;39.73;98896.87;1705243;83;21172;-67
2021/03/08 10:06:34;;;;;;;5.35;1.45;;;;;;;3.55;39.04;98900.44;1725054;83;21157;-66
2021/03/08 10:09:21;;;;;;;3.27;0.80;;;;;;;3.57;37.77;98903.19;1696771;84;21157;-66
2021/03/08 10:11:48;;;;;;;1.55;0.62;;;;;;;3.54;37.68;98908.25;1706478;81;21199;-67
2021/03/08 10:14:24;;;;;;;2.60;0.60;;;;;;;3.63;38.15;98908.11;1730759;81;21187;-69
2021/03/08 10:17:11;;;;;;;3.17;0.78;;;;;;;3.76;38.08;98911.26;1723678;82;21730;-68
2021/03/08 10:19:54;;;;;;;4.92;1.12;;;;;;;3.80;37.93;98911.05;1735146;81;21155;-66
2021/03/08 10:22:39;;;;;;;3.27;0.90;;;;;;;3.86;37.40;98911.40;1714690;82;21215;-66
2021/03/08 10:25:30;;;;;;;2.10;0.55;;;;;;;3.87;38.39;98914.91;1717572;82;21178;-66
2021/03/08 10:28:01;;;;;;;1.77;0.30;;;;;;;3.71;37.20;98907.70;1711769;83;21208;-67
2021/03/08 10:30:32;;;;;;;3.58;1.15;;;;;;;3.59;38.02;98908.31;1714654;82;21189;-65
2021/03/08 10:33:05;;;;;;;3.83;0.98;;;;;;;3.55;39.08;98904.48;1717478;82;21172;-68
2021/03/08 10:35:44;;;;;;;1.95;0.68;;;;;;;3.40;39.59;98903.19;1734532;82;21238;-66
2021/03/08 10:38:14;;;;;;;1.80;0.60;;;;;;;3.42;40.05;98909.16;1738922;81;21161;-67
2021/03/08 10:40:41;;;;;;;1.52;0.60;;;;;;;3.28;38.44;98895.75;1707631;83;21179;-65
2021/03/08 10:43:11;;;;;;;1.85;0.60;;;;;;;2.99;39.25;98896.86;1717218;81;21177;-67
2021/03/08 10:45:38;;;;;;;3.08;0.88;;;;;;;2.93;39.37;98903.22;1685365;83;21171;-66
2021/03/08 10:48:11;;;;;;;3.65;1.30;;;;;;;2.79;38.77;98894.66;1739490;81;21165;-64
2021/03/08 10:50:46;;;;;;;3.95;0.90;;;;;;;2.72;40.11;98891.83;1698661;83;21185;-64
2021/03/08 10:53:17;;;;;;;1.37;0.80;;;;;;;2.70;39.83;98893.40;1686251;84;21158;-65
2021/03/08 10:55:46;;;;;;;2.72;1.00;;;;;;;2.66;40.41;98892.80;1758906;81;21144;-68
2021/03/08 10:58:15;;;;;;;6.05;1.45;;;;;;;2.54;39.59;98900.90;1747369;82;21188;-66
2021/03/08 11:00:44;;;;;;;4.10;1.40;;;;;;;2.54;40.39;98902.77;1747504;82;21182;-65
2021/03/08 11:03:41;;;;;;;2.65;0.93;;;;;;;2.58;41.31;98899.38;1753298;81;21585;-69
2021/03/08 11:06:17;;;;;;;2.12;0.68;;;;;;;2.61;40.92;98891.34;1751438;81;21185;-68
2021/03/08 11:09:01;;;;;;;4.30;1.80;;;;;;;2.65;40.20;98903.25;1750120;81;21285;-67
2021/03/08 11:11:31;;;;;;;6.08;2.45;;;;;;;2.64;39.43;98905.64;1769576;81;21247;-65
2021/03/08 11:14:04;;;;;;;5.50;2.90;;;;;;;2.63;40.72;98906.69;1759739;80;21281;-65
2021/03/08 11:16:35;;;;;;;2.35;0.90;;;;;;;2.66;39.64;98901.65;1713827;82;21098;-66
2021/03/08 11:19:19;;;;;;;4.17;0.80;;;;;;;2.55;39.39;98908.44;1763257;80;21594;-67
2021/03/08 11:22:13;;;;;;;3.75;0.90;;;;;;;2.56;40.12;98908.18;1748555;81;21125;-68
2021/03/08 11:24:51;;;;;;;3.87;1.30;;;;;;;2.54;40.04;98905.45;1758531;81;21200;-67
2021/03/08 11:27:23;;;;;;;2.52;1.10;;;;;;;2.54;40.86;98899.56;1748456;81;21592;-67
2021/03/08 11:30:10;;;;;;;3.58;1.10;;;;;;;2.56;39.93;98900.12;1764352;80;21153;-65
2021/03/08 11:32:40;;;;;;;4.65;2.08;;;;;;;2.61;39.55;98900.75;1748656;81;21193;-67
2021/03/08 11:35:19;;;;;;;3.22;1.10;;;;;;;2.57;40.06;98899.59;1746424;82;21186;-66
2021/03/08 11:37:51;;;;;;;3.37;1.62;;;;;;;2.48;40.90;98896.47;1746050;80;21583;-65
2021/03/08 11:40:21;;;;;;;4.12;1.70;;;;;;;2.42;40.77;98904.15;1753734;80;21130;-65
2021/03/08 11:42:49;;;;;;;3.72;1.35;;;;;;;2.35;41.22;98896.75;1748979;81;21177;-66
2021/03/08 11:46:23;;;;;;;3.33;1.47;;;;;;;2.29;41.69;98891.83;1791989;79;22971;-64
2021/03/08 11:49:05;;;;;;;3.20;1.40;;;;;;;2.25;42.53;98905.96;1767415;80;21651;-64
2021/03/08 11:51:33;;;;;;;4.30;1.60;;;;;;;2.18;42.83;98876.56;1771132;81;21385;-63
2021/03/08 11:54:01;;;;;;;4.03;0.93;;;;;;;2.36;41.94;98896.53;1764696;81;21224;-63
2021/03/08 11:56:29;;;;;;;1.57;0.50;;;;;;;2.32;43.24;98903.44;1768334;80;21290;-63
2021/03/08 11:58:57;;;;;;;3.92;1.10;;;;;;;2.14;41.37;98904.94;1779754;80;21172;-67
2021/03/08 12:01:24;;;;;;;4.80;1.40;;;;;;;2.07;42.93;98913.66;1779171;80;21609;-66
2021/03/08 12:03:52;;;;;;;4.45;1.00;;;;;;;2.06;43.12;98924.09;1774724;80;21199;-65
2021/03/08 12:06:19;;;;;;;5.03;1.45;;;;;;;1.98;42.89;98915.08;1782913;80;21176;-68